Tiff City, MO (64868)

02:00:CDT den 24. Oktober 2014 (GMT -0500)
Grove Municipal | Change Station
CLOSE
Current Station
Flyplass
Location: Grove,
Høyde over havet: 833 ft
Nearby Weather Stations
Gjeldende advarsel: Dense Fog Advisory

H.o.h 833 ft 36.60 °N, 94.74 °W | Updated 5 minutes ago

Klart
Klart
52 °F
Feels Like 52 °F
N
0
Vind Variabel Vind from Nord

I dag
High -- | Low -- °F
--% Chance of Precip.
I går
High -- | Low -- °F
Precip. -- tommer
7:34 AM 6:30 PM
Nymåne, 0% visible
Lufttrykk 30.13 tommer
Sikt 3.0 eng. mil
Skyet Klart
Duggpunkt 52 °F
Fuktighet 100%
Regn 0.00 tommer
Snødybde Not available.
UV 0 av 12
Pollen 3.30 av 12
Luftkvalitet Not available.
Flu Activity No Activity
METAR KGMJ 240655Z AUTO 00000KT 3SM BR CLR 11/11 A3013 RMK AO2

More Conditions Fewer Conditions

Lufttrykk 30.13 tommer
Sikt 3.0 eng. mil
Skyet Klart
Duggpunkt 52 °F
Fuktighet 100%
Regn 0.00 tommer
Snødybde Not available.
UV 0 av 12
Pollen 3.30 av 12
Luftkvalitet Not available.
Flu Activity No Activity
METAR KGMJ 240655Z AUTO 00000KT 3SM BR CLR 11/11 A3013 RMK AO2

More Conditions Fewer Conditions

10-Day Weather Forecast

Almanac

Astronomi

Oct. 24, 2014 Oppgang Nedgang
Virkelig tid 07:34 CDT 18:30 CDT
Tussmørke 07:07 CDT 18:56 CDT
Nautisk skumring 06:37 CDT 19:27 CDT
Astronomisk skumring 06:07 CDT 19:56 CDT
Månen 08:13 CDT 19:12 CDT
Lengde av synlig lys 11h 49m
Dagens lengde
10h 56m
Tomorrow will be 2m 9s shorter.
Nymåne, 0% of the Moon is Illuminated
I dag
Nymåne
Oct 30
Første kvarter
Nov 6
Fullmåne
Nov 14
Siste kvarter
Nov 22
Ny

Dagens maks og min

State Highs State Lows

Community

WunderPhotos

Upload Photos

1,764,510 photos uploaded!

WunderBlogs® & News

Nearby

Snødybde

Stasjon Depth Høyde over havet
No new snow has been reported.

Earthquake Activity

By Distance Mag. Time & Date
No recent earthquake activity has been reported nearby.
Minimum magnitude displayed is 2.5.

Coastal Water Temperatures

Sted Temperatur
Ingen stasjoner raporterer

Nearby Weather Stations